Angmagssalik, Greenland
Current Conditions -  °F | °C
As of 1:50 AM on Friday 31 Oct 2014 (Local Time) from BGKK Reporting Station
Clear Clear  
Wind Chill: 18°   Ceiling: Unl
Heat Index: 25°   Visibility: 6mi
Dew Point: 12°   Wind: 6mph
Humidity: 59%   Direction: 230°SW
Pressure: 30"   Gusts: NA
Location:  65.61°N, 37.68°W
Report Text: BGKK 310350Z AUTO 23005KT 200V280 9999NDV NCD M04/M11 Q1016
Loading
Personal Weather Stations






























Interactive Weather Map
Tropical Storm Tracking
New forecast layout! Learn more

10-Day Weather Forecast

Advertisements
Track Severe Weather on mobile